createdAt,value
2023-04-11T00:01:05.247Z,5.4
2023-04-11T00:02:13.824Z,5.4
2023-04-11T00:03:22.242Z,5.4
2023-04-11T00:04:30.507Z,5.4
2023-04-11T00:05:38.993Z,5.6
2023-04-11T00:06:47.354Z,5.6
2023-04-11T00:07:55.707Z,5.6
2023-04-11T00:09:04.246Z,5.7
2023-04-11T00:10:12.538Z,5.7
2023-04-11T00:11:20.865Z,5.7
2023-04-11T00:12:29.397Z,5.8
2023-04-11T00:13:37.766Z,5.8
2023-04-11T00:14:46.032Z,5.8
2023-04-11T00:15:54.552Z,5.7
2023-04-11T00:17:02.900Z,5.7
2023-04-11T00:18:11.216Z,5.7
2023-04-11T00:19:19.758Z,5.3
2023-04-11T00:20:28.081Z,5.3
2023-04-11T00:21:36.417Z,5.3
2023-04-11T00:22:44.935Z,5.3
2023-04-11T00:23:53.277Z,5.3
2023-04-11T00:25:01.661Z,5.3
2023-04-11T00:26:10.169Z,5.6
2023-04-11T00:27:20.000Z,5.6
2023-04-11T00:28:26.827Z,5.6
2023-04-11T00:29:35.368Z,5.1
2023-04-11T00:30:43.706Z,5.1
2023-04-11T00:31:52.058Z,5.1
2023-04-11T00:33:00.643Z,5.1
2023-04-11T00:34:08.908Z,5.1
2023-04-11T00:35:17.237Z,5.1
2023-04-11T00:36:25.854Z,5.5
2023-04-11T00:37:34.096Z,5.5
2023-04-11T00:38:42.407Z,5.5
2023-04-11T00:39:50.968Z,5.4
2023-04-11T00:40:59.333Z,5.4
2023-04-11T00:42:07.642Z,5.4
2023-04-11T00:43:16.173Z,5.5
2023-04-11T00:44:24.545Z,5.5
2023-04-11T00:45:32.861Z,5.5
2023-04-11T00:46:41.412Z,5.4
2023-04-11T00:47:49.788Z,5.4
2023-04-11T00:48:58.224Z,5.4
2023-04-11T00:50:06.606Z,5.6
2023-04-11T00:51:14.933Z,5.6
2023-04-11T00:52:23.245Z,5.6
2023-04-11T00:53:31.810Z,5.6
2023-04-11T00:54:40.153Z,5.6
2023-04-11T00:55:48.439Z,5.6
2023-04-11T00:56:56.996Z,6.4
2023-04-11T00:58:05.293Z,6.4
2023-04-11T00:59:13.628Z,6.4
2023-04-11T01:00:22.158Z,6.4
2023-04-11T01:01:30.530Z,6.4
2023-04-11T01:02:38.993Z,6.4
2023-04-11T01:03:47.437Z,6.8
2023-04-11T01:04:55.667Z,6.8
2023-04-11T01:06:03.981Z,6.8
2023-04-11T01:07:12.537Z,7.1
2023-04-11T01:08:20.857Z,7.1
2023-04-11T01:09:29.190Z,7.1
2023-04-11T01:10:37.753Z,7.4
2023-04-11T01:11:46.052Z,7.4
2023-04-11T01:12:54.402Z,7.4
2023-04-11T01:14:02.924Z,7.3
2023-04-11T01:15:11.243Z,7.3
2023-04-11T01:16:19.576Z,7.3
2023-04-11T01:17:28.127Z,7.9
2023-04-11T01:18:36.419Z,7.9
2023-04-11T01:19:44.739Z,7.9
2023-04-11T01:20:53.277Z,7.8
2023-04-11T01:22:01.604Z,7.8
2023-04-11T01:23:09.919Z,7.8
2023-04-11T01:24:18.440Z,7.8
2023-04-11T01:25:26.864Z,7.8
2023-04-11T01:26:35.151Z,7.8
2023-04-11T01:27:43.695Z,8.1
2023-04-11T01:28:52.054Z,8.1
2023-04-11T01:30:00.336Z,8.1
2023-04-11T01:31:08.892Z,7.9
2023-04-11T01:32:17.187Z,7.9
2023-04-11T01:33:25.509Z,7.9
2023-04-11T01:34:34.056Z,8
2023-04-11T01:35:42.396Z,8
2023-04-11T01:36:50.692Z,8
2023-04-11T01:37:59.226Z,7.9
2023-04-11T01:39:07.537Z,7.9
2023-04-11T01:40:17.633Z,7.9
2023-04-11T01:41:26.185Z,7.1
2023-04-11T01:42:34.517Z,7.1
2023-04-11T01:43:42.843Z,7.1
2023-04-11T01:44:51.424Z,7.1
2023-04-11T01:45:59.725Z,7.1
2023-04-11T01:47:08.068Z,7.1
2023-04-11T01:48:16.654Z,7.3
2023-04-11T01:49:24.914Z,7.3
2023-04-11T01:50:33.252Z,7.3
2023-04-11T01:51:41.778Z,7.9
2023-04-11T01:52:50.086Z,7.9
2023-04-11T01:53:58.434Z,7.9
2023-04-11T01:55:06.978Z,7.1
2023-04-11T01:56:15.314Z,7.1
2023-04-11T01:57:23.647Z,7.1
2023-04-11T01:58:32.172Z,7.3
2023-04-11T01:59:40.498Z,7.3
2023-04-11T02:00:48.852Z,7.3
2023-04-11T02:01:57.370Z,7.8
2023-04-11T02:03:05.754Z,7.8
2023-04-11T02:04:14.127Z,7.8
2023-04-11T02:05:22.528Z,7.6
2023-04-11T02:06:30.845Z,7.6
2023-04-11T02:07:39.178Z,7.6
2023-04-11T02:08:47.706Z,7.7
2023-04-11T02:09:56.026Z,7.7
2023-04-11T02:11:04.369Z,7.7
2023-04-11T02:12:12.874Z,7.8
2023-04-11T02:13:21.236Z,7.8
2023-04-11T02:14:29.541Z,7.8
2023-04-11T02:15:38.184Z,7.6
2023-04-11T02:16:46.454Z,7.6
2023-04-11T02:17:54.756Z,7.6
2023-04-11T02:19:03.280Z,7.9
2023-04-11T02:20:11.601Z,7.9
2023-04-11T02:21:19.911Z,7.9
2023-04-11T02:22:28.443Z,7.8
2023-04-11T02:23:36.756Z,7.8
2023-04-11T02:24:45.083Z,7.8
2023-04-11T02:25:53.632Z,8.5
2023-04-11T02:27:01.951Z,8.5
2023-04-11T02:28:10.287Z,8.5
2023-04-11T02:29:18.812Z,8.4
2023-04-11T02:30:27.163Z,8.4
2023-04-11T02:31:35.556Z,8.4
2023-04-11T02:32:44.103Z,7.8
2023-04-11T02:33:52.363Z,7.8
2023-04-11T02:35:00.689Z,7.8
2023-04-11T02:36:09.252Z,7.8
2023-04-11T02:37:17.566Z,7.8
2023-04-11T02:38:25.887Z,7.8
2023-04-11T02:39:34.423Z,8
2023-04-11T02:40:42.767Z,8
2023-04-11T02:41:51.082Z,8
2023-04-11T02:42:59.604Z,8.1
2023-04-11T02:44:07.928Z,8.1
2023-04-11T02:45:16.274Z,8.1
2023-04-11T02:46:24.851Z,8.2
2023-04-11T02:47:33.168Z,8.2
2023-04-11T02:48:41.515Z,8.2
2023-04-11T02:49:50.083Z,8.2
2023-04-11T02:50:58.466Z,8.2
2023-04-11T02:52:06.780Z,8.2
2023-04-11T02:53:15.379Z,8.5
2023-04-11T02:54:23.698Z,8.5
2023-04-11T02:55:32.058Z,8.5
2023-04-11T02:56:40.643Z,8.7
2023-04-11T02:57:48.974Z,8.7
2023-04-11T02:58:57.677Z,8.7
2023-04-11T03:00:05.859Z,8.6
2023-04-11T03:01:14.256Z,8.6
2023-04-11T03:02:22.569Z,8.6
2023-04-11T03:03:31.189Z,8.8
2023-04-11T03:04:39.540Z,8.8
2023-04-11T03:05:47.744Z,8.8
2023-04-11T03:06:56.306Z,8.5
2023-04-11T03:08:04.650Z,8.5
2023-04-11T03:09:12.975Z,8.5
2023-04-11T03:10:21.518Z,8.6
2023-04-11T03:11:29.858Z,8.6
2023-04-11T03:12:38.196Z,8.6
2023-04-11T03:13:46.786Z,8.8
2023-04-11T03:14:55.116Z,8.8
2023-04-11T03:16:03.479Z,8.8
2023-04-11T03:17:12.019Z,8.3
2023-04-11T03:18:20.378Z,8.3
2023-04-11T03:19:28.707Z,8.3
2023-04-11T03:20:37.280Z,8.7
2023-04-11T03:21:45.618Z,8.7
2023-04-11T03:22:53.927Z,8.7
2023-04-11T03:24:02.475Z,8.1
2023-04-11T03:25:10.815Z,8.1
2023-04-11T03:26:19.159Z,8.1
2023-04-11T03:27:27.689Z,8.9
2023-04-11T03:28:36.041Z,8.9
2023-04-11T03:29:44.387Z,8.9
2023-04-11T03:30:52.943Z,8.5
2023-04-11T03:32:01.321Z,8.5
2023-04-11T03:33:09.628Z,8.5
2023-04-11T03:34:18.169Z,8.4
2023-04-11T03:35:26.512Z,8.4
2023-04-11T03:36:34.858Z,8.4
2023-04-11T03:37:43.376Z,12.2
2023-04-11T03:38:51.714Z,12.2
2023-04-11T03:40:00.049Z,12.2
2023-04-11T03:41:08.599Z,13.9
2023-04-11T03:42:16.946Z,13.9
2023-04-11T03:43:25.282Z,13.9
2023-04-11T03:44:33.829Z,9.5
2023-04-11T03:45:42.223Z,9.5
2023-04-11T03:46:50.571Z,9.5
2023-04-11T03:47:59.138Z,10.3
2023-04-11T03:49:07.464Z,10.3
2023-04-11T03:50:15.833Z,10.3
2023-04-11T03:51:24.400Z,9.3
2023-04-11T03:52:32.758Z,9.3
2023-04-11T03:53:41.103Z,9.3
2023-04-11T03:54:49.638Z,8.9
2023-04-11T03:55:57.995Z,8.9
2023-04-11T03:57:06.313Z,8.9
2023-04-11T03:58:14.896Z,9
2023-04-11T03:59:23.227Z,9
2023-04-11T04:00:31.559Z,9
2023-04-11T04:01:40.145Z,9.8
2023-04-11T04:02:48.557Z,9.8
2023-04-11T04:03:57.108Z,9.8
2023-04-11T04:05:05.451Z,9.6
2023-04-11T04:06:13.703Z,9.6
2023-04-11T04:07:22.049Z,9.6
2023-04-11T04:08:30.609Z,9.2
2023-04-11T04:09:38.956Z,9.2
2023-04-11T04:10:47.275Z,9.2
2023-04-11T04:11:55.822Z,9.4
2023-04-11T04:13:04.180Z,9.4
2023-04-11T04:14:12.489Z,9.4
2023-04-11T04:15:21.045Z,9.2
2023-04-11T04:16:29.394Z,9.2
2023-04-11T04:17:37.753Z,9.2
2023-04-11T04:18:46.260Z,9.1
2023-04-11T04:19:54.588Z,9.1
2023-04-11T04:21:02.903Z,9.1
2023-04-11T04:22:11.452Z,8.7
2023-04-11T04:23:19.856Z,8.7
2023-04-11T04:24:28.208Z,8.7
2023-04-11T04:25:36.745Z,8.9
2023-04-11T04:26:45.084Z,8.9
2023-04-11T04:27:53.405Z,8.9
2023-04-11T04:29:01.951Z,8.2
2023-04-11T04:30:10.274Z,8.2
2023-04-11T04:31:18.638Z,8.2
2023-04-11T04:32:27.187Z,7.9
2023-04-11T04:33:35.485Z,7.9
2023-04-11T04:34:43.808Z,7.9
2023-04-11T04:35:52.446Z,7.3
2023-04-11T04:37:00.675Z,7.3
2023-04-11T04:38:08.999Z,7.3
2023-04-11T04:39:17.549Z,7.5
2023-04-11T04:40:25.889Z,7.5
2023-04-11T04:41:34.227Z,7.5
2023-04-11T04:42:42.751Z,6.7
2023-04-11T04:43:51.055Z,6.7
2023-04-11T04:44:59.404Z,6.7
2023-04-11T04:46:07.972Z,6.8
2023-04-11T04:47:16.261Z,6.8
2023-04-11T04:48:24.599Z,6.8
2023-04-11T04:49:33.113Z,6.7
2023-04-11T04:50:41.455Z,6.7
2023-04-11T04:51:49.765Z,6.7
2023-04-11T04:52:58.286Z,6.7
2023-04-11T04:54:06.611Z,6.7
2023-04-11T04:55:14.969Z,6.7
2023-04-11T04:56:23.537Z,6.6
2023-04-11T04:57:31.810Z,6.6
2023-04-11T04:58:40.155Z,6.6
2023-04-11T04:59:48.668Z,6.4
2023-04-11T05:00:57.019Z,6.4
2023-04-11T05:02:05.368Z,6.4
2023-04-11T05:03:13.905Z,7
2023-04-11T05:04:22.260Z,7
2023-04-11T05:05:30.510Z,7
2023-04-11T05:06:39.029Z,6.7
2023-04-11T05:07:47.370Z,6.7
2023-04-11T05:08:55.684Z,6.7
2023-04-11T05:10:04.232Z,7.2
2023-04-11T05:11:12.554Z,7.2
2023-04-11T05:12:20.882Z,7.2
2023-04-11T05:13:29.389Z,6.6
2023-04-11T05:14:37.697Z,6.6
2023-04-11T05:15:46.027Z,6.6
2023-04-11T05:16:54.571Z,7.2
2023-04-11T05:18:02.896Z,7.2
2023-04-11T05:19:11.191Z,7.2
2023-04-11T05:20:19.754Z,6.5
2023-04-11T05:21:28.080Z,6.5
2023-04-11T05:22:36.396Z,6.5
2023-04-11T05:23:44.918Z,5.6
2023-04-11T05:24:53.252Z,5.6
2023-04-11T05:26:01.558Z,5.6
2023-04-11T05:27:10.076Z,5
2023-04-11T05:28:18.429Z,5
2023-04-11T05:29:26.740Z,5
2023-04-11T05:30:35.274Z,5.3
2023-04-11T05:31:43.575Z,5.3
2023-04-11T05:32:51.977Z,5.3
2023-04-11T05:34:00.460Z,5.2
2023-04-11T05:35:08.797Z,5.2
2023-04-11T05:36:17.177Z,5.2
2023-04-11T05:37:25.641Z,4.5
2023-04-11T05:38:33.959Z,4.5
2023-04-11T05:39:42.277Z,4.5
2023-04-11T05:40:50.810Z,3.4
2023-04-11T05:41:59.222Z,3.4
2023-04-11T05:43:07.522Z,3.4
2023-04-11T05:44:16.148Z,2.8
2023-04-11T05:45:25.744Z,2.8
2023-04-11T05:46:34.153Z,2.8
2023-04-11T05:47:42.723Z,2.8
2023-04-11T05:48:50.980Z,2.8
2023-04-11T05:49:59.357Z,2.8
2023-04-11T05:51:07.932Z,2.5
2023-04-11T05:52:16.260Z,2.5
2023-04-11T05:53:24.625Z,2.5
2023-04-11T05:54:33.182Z,2.6
2023-04-11T05:55:41.489Z,2.6
2023-04-11T05:56:49.827Z,2.6
2023-04-11T05:57:58.422Z,2.5
2023-04-11T05:59:06.712Z,2.5
2023-04-11T06:00:15.120Z,2.5
2023-04-11T06:01:23.656Z,2.4
2023-04-11T06:02:32.102Z,2.4
2023-04-11T06:03:40.406Z,2.4
2023-04-11T06:04:48.881Z,1.8
2023-04-11T06:05:57.184Z,1.8
2023-04-11T06:07:05.500Z,1.8
2023-04-11T06:08:14.057Z,2
2023-04-11T06:09:22.372Z,2
2023-04-11T06:10:30.756Z,2
2023-04-11T06:11:39.240Z,1.8
2023-04-11T06:12:47.574Z,1.8
2023-04-11T06:13:56.056Z,1.8
2023-04-11T06:15:04.490Z,1.6
2023-04-11T06:16:12.847Z,1.6
2023-04-11T06:17:21.195Z,1.6
2023-04-11T06:18:29.718Z,1.6
2023-04-11T06:19:38.051Z,1.6
2023-04-11T06:20:46.409Z,1.6
2023-04-11T06:21:54.957Z,1.1
2023-04-11T06:23:03.278Z,1.1
2023-04-11T06:24:11.653Z,1.1
2023-04-11T06:25:20.187Z,1.3
2023-04-11T06:26:28.504Z,1.3
2023-04-11T06:27:36.832Z,1.3
2023-04-11T06:28:45.370Z,1.2
2023-04-11T06:29:53.724Z,1.2
2023-04-11T06:31:02.119Z,1.2
2023-04-11T06:32:10.644Z,1.6
2023-04-11T06:33:18.972Z,1.6
2023-04-11T06:34:27.314Z,1.6
2023-04-11T06:35:35.906Z,1.3
2023-04-11T06:36:44.171Z,1.3
2023-04-11T06:37:52.525Z,1.3
2023-04-11T06:39:01.059Z,1.3
2023-04-11T06:40:09.428Z,1.3
2023-04-11T06:41:17.742Z,1.3
2023-04-11T06:42:26.267Z,1.1
2023-04-11T06:43:34.632Z,1.1
2023-04-11T06:44:42.980Z,1.1
2023-04-11T06:45:51.520Z,5.8
2023-04-11T06:46:59.885Z,5.8
2023-04-11T06:48:08.375Z,5.8
2023-04-11T06:49:16.869Z,8.9
2023-04-11T06:50:25.232Z,8.9
2023-04-11T06:51:33.534Z,8.9
2023-04-11T06:52:42.085Z,1.1
2023-04-11T06:53:50.444Z,1.1
2023-04-11T06:54:58.805Z,1.1
2023-04-11T06:56:07.318Z,1.1
2023-04-11T06:57:15.646Z,1.1
2023-04-11T06:58:23.998Z,1.1
2023-04-11T06:59:32.553Z,1.7
2023-04-11T07:00:40.871Z,1.7
2023-04-11T07:01:49.315Z,1.7
2023-04-11T07:02:57.894Z,1.1
2023-04-11T07:04:06.137Z,1.1
2023-04-11T07:05:14.380Z,1.1
2023-04-11T07:06:22.912Z,1.5
2023-04-11T07:07:31.556Z,1.5
2023-04-11T07:08:39.870Z,1.5
2023-04-11T07:09:48.443Z,4.4
2023-04-11T07:10:56.749Z,4.4
2023-04-11T07:12:05.127Z,4.4
2023-04-11T07:13:13.682Z,2.6
2023-04-11T07:14:22.038Z,2.6
2023-04-11T07:15:30.356Z,2.6
2023-04-11T07:16:38.987Z,1.3
2023-04-11T07:17:47.241Z,1.3
2023-04-11T07:18:55.564Z,1.3
2023-04-11T07:20:04.157Z,1.4
2023-04-11T07:21:12.463Z,1.4
2023-04-11T07:22:20.831Z,1.4
2023-04-11T07:23:29.387Z,4.4
2023-04-11T07:24:37.723Z,4.4
2023-04-11T07:25:52.424Z,4.4
2023-04-11T07:27:00.953Z,19.1
2023-04-11T07:28:09.358Z,19.1
2023-04-11T07:29:17.701Z,19.1
2023-04-11T07:30:26.210Z,10.8
2023-04-11T07:31:34.562Z,10.8
2023-04-11T07:32:42.896Z,10.8
2023-04-11T07:33:51.433Z,4.1
2023-04-11T07:34:59.798Z,4.1
2023-04-11T07:36:08.294Z,4.1
2023-04-11T07:37:16.729Z,2.9
2023-04-11T07:38:25.094Z,2.9
2023-04-11T07:39:33.427Z,2.9
2023-04-11T07:40:42.005Z,1.4
2023-04-11T07:41:50.322Z,1.4
2023-04-11T07:42:58.677Z,1.4
2023-04-11T07:44:07.241Z,2.2
2023-04-11T07:45:15.595Z,2.2
2023-04-11T07:46:23.912Z,2.2
2023-04-11T07:47:32.504Z,2
2023-04-11T07:48:40.831Z,2
2023-04-11T07:49:49.147Z,2
2023-04-11T07:50:57.691Z,1.5
2023-04-11T07:52:06.035Z,1.5
2023-04-11T07:53:14.349Z,1.5
2023-04-11T07:54:22.883Z,1.8
2023-04-11T07:55:31.246Z,1.8
2023-04-11T07:56:39.605Z,1.8
2023-04-11T07:57:48.153Z,2.1
2023-04-11T07:58:56.489Z,2.1
2023-04-11T08:00:04.805Z,2.1
2023-04-11T08:01:13.340Z,2.3
2023-04-11T08:02:21.761Z,2.3
2023-04-11T08:03:30.291Z,2.3
2023-04-11T08:04:38.660Z,2.3
2023-04-11T08:05:46.913Z,2.3
2023-04-11T08:06:55.243Z,2.3
2023-04-11T08:08:03.841Z,1.9
2023-04-11T08:09:12.242Z,1.9
2023-04-11T08:10:20.579Z,1.9
2023-04-11T08:11:29.168Z,2.2
2023-04-11T08:12:37.513Z,2.2
2023-04-11T08:13:45.850Z,2.2
2023-04-11T08:14:54.420Z,1.7
2023-04-11T08:16:02.758Z,1.7
2023-04-11T08:17:17.806Z,1.7
2023-04-11T08:18:19.714Z,1.4
2023-04-11T08:19:28.050Z,1.4
2023-04-11T08:20:36.370Z,1.4
2023-04-11T08:21:44.889Z,2.1
2023-04-11T08:22:53.220Z,2.1
2023-04-11T08:24:01.615Z,2.1
2023-04-11T08:25:10.124Z,1.4
2023-04-11T08:26:18.468Z,1.4
2023-04-11T08:27:26.802Z,1.4
2023-04-11T08:28:35.349Z,1.5
2023-04-11T08:29:43.681Z,1.5
2023-04-11T08:30:52.075Z,1.5
2023-04-11T08:32:00.570Z,1.6
2023-04-11T08:33:08.890Z,1.6
2023-04-11T08:34:17.241Z,1.6
2023-04-11T08:35:26.072Z,1.2
2023-04-11T08:36:34.188Z,1.2
2023-04-11T08:37:42.537Z,1.2
2023-04-11T08:38:51.093Z,1.2
2023-04-11T08:39:59.498Z,1.2
2023-04-11T08:41:07.783Z,1.2
2023-04-11T08:42:16.405Z,1.2
2023-04-11T08:43:24.693Z,1.2
2023-04-11T08:44:33.032Z,1.2
2023-04-11T08:45:41.605Z,1.4
2023-04-11T08:46:49.914Z,1.4
2023-04-11T08:47:58.348Z,1.4
2023-04-11T08:49:06.835Z,1.1
2023-04-11T08:50:15.192Z,1.1
2023-04-11T08:51:23.531Z,1.1
2023-04-11T08:52:32.092Z,1.2
2023-04-11T08:53:40.431Z,1.2
2023-04-11T08:54:48.748Z,1.2
2023-04-11T08:55:57.357Z,1.4
2023-04-11T08:57:05.676Z,1.4
2023-04-11T08:58:14.019Z,1.4
2023-04-11T08:59:22.581Z,1.3
2023-04-11T09:00:30.907Z,1.3
2023-04-11T09:01:39.272Z,1.3
2023-04-11T09:02:47.865Z,1.9
2023-04-11T09:03:56.281Z,1.9
2023-04-11T09:05:04.462Z,1.9
2023-04-11T09:06:12.988Z,1.3
2023-04-11T09:07:21.348Z,1.3
2023-04-11T09:08:29.685Z,1.3
2023-04-11T09:09:38.203Z,1.4
2023-04-11T09:10:46.557Z,1.4
2023-04-11T09:11:54.908Z,1.4
2023-04-11T09:13:03.432Z,0.9
2023-04-11T09:14:11.753Z,0.9
2023-04-11T09:15:20.137Z,0.9
2023-04-11T09:16:28.892Z,1
2023-04-11T09:17:37.014Z,1
2023-04-11T09:18:45.328Z,1
2023-04-11T09:19:53.932Z,0.7
2023-04-11T09:21:02.293Z,0.7
2023-04-11T09:22:10.622Z,0.7
2023-04-11T09:23:19.153Z,0.7
2023-04-11T09:24:27.489Z,0.7
2023-04-11T09:25:35.843Z,0.7
2023-04-11T09:26:44.432Z,0.7
2023-04-11T09:27:52.790Z,0.7
2023-04-11T09:29:01.061Z,0.7
2023-04-11T09:30:09.628Z,0.6
2023-04-11T09:31:17.963Z,0.6
2023-04-11T09:32:26.409Z,0.6
2023-04-11T09:33:35.636Z,0.7
2023-04-11T09:34:43.986Z,0.7
2023-04-11T09:35:52.328Z,0.7
2023-04-11T09:37:00.870Z,0.8
2023-04-11T09:38:09.174Z,0.8
2023-04-11T09:39:17.523Z,0.8
2023-04-11T09:40:26.057Z,0.8
2023-04-11T09:41:34.406Z,0.8
2023-04-11T09:42:42.739Z,0.8
2023-04-11T09:43:51.296Z,0.6
2023-04-11T09:44:59.602Z,0.6
2023-04-11T09:46:07.956Z,0.6
2023-04-11T09:47:16.487Z,3.1
2023-04-11T09:48:29.315Z,3.1
2023-04-11T09:49:33.136Z,3.1
2023-04-11T09:50:41.667Z,3.7
2023-04-11T09:51:50.000Z,3.7
2023-04-11T09:52:59.352Z,3.7
2023-04-11T09:54:06.867Z,1.3
2023-04-11T09:55:15.215Z,1.3
2023-04-11T09:56:23.550Z,1.3
2023-04-11T09:57:32.093Z,0.9
2023-04-11T09:58:40.439Z,0.9
2023-04-11T09:59:48.914Z,0.9
2023-04-11T10:00:57.304Z,0.9
2023-04-11T10:02:05.719Z,0.9
2023-04-11T10:03:14.073Z,0.9
2023-04-11T10:04:22.530Z,0.9
2023-04-11T10:05:30.865Z,0.9
2023-04-11T10:06:39.202Z,0.9
2023-04-11T10:07:47.760Z,0.9
2023-04-11T10:08:56.211Z,0.9
2023-04-11T10:10:04.405Z,0.9
2023-04-11T10:11:12.933Z,1
2023-04-11T10:12:21.283Z,1
2023-04-11T10:13:29.616Z,1
2023-04-11T10:14:38.185Z,1.1
2023-04-11T10:15:46.516Z,1.1
2023-04-11T10:16:54.838Z,1.1
2023-04-11T10:18:03.408Z,1.1
2023-04-11T10:19:11.708Z,1.1
2023-04-11T10:20:20.064Z,1.1
2023-04-11T10:21:28.613Z,1.3
2023-04-11T10:22:36.906Z,1.3
2023-04-11T10:23:45.224Z,1.3
2023-04-11T10:24:53.753Z,1.2
2023-04-11T10:26:02.073Z,1.2
2023-04-11T10:27:10.416Z,1.2
2023-04-11T10:28:18.968Z,1
2023-04-11T10:29:27.328Z,1
2023-04-11T10:30:35.654Z,1
2023-04-11T10:31:44.345Z,0.9
2023-04-11T10:32:57.448Z,0.9
2023-04-11T10:34:08.984Z,0.9
2023-04-11T10:35:17.936Z,1.2
2023-04-11T10:36:26.313Z,1.2
2023-04-11T10:37:34.655Z,1.2
2023-04-11T10:38:43.205Z,1
2023-04-11T10:39:51.516Z,1
2023-04-11T10:40:59.824Z,1
2023-04-11T10:42:08.392Z,1.4
2023-04-11T10:43:16.727Z,1.4
2023-04-11T10:44:25.115Z,1.4
2023-04-11T10:45:33.599Z,0.5
2023-04-11T10:46:41.942Z,0.5
2023-04-11T10:47:50.483Z,0.5
2023-04-11T10:49:00.997Z,0.4
2023-04-11T10:50:21.498Z,0.4
2023-04-11T10:51:36.344Z,0.4
2023-04-11T10:52:50.070Z,0.6
2023-04-11T10:53:58.537Z,0.6
2023-04-11T10:55:18.011Z,0.6
2023-04-11T10:56:27.032Z,0.9
2023-04-11T10:57:35.361Z,0.9
2023-04-11T10:58:43.709Z,0.9
2023-04-11T10:59:52.268Z,0.5
2023-04-11T11:01:00.880Z,0.5
2023-04-11T11:02:09.214Z,0.5
2023-04-11T11:03:18.024Z,0.6
2023-04-11T11:04:26.168Z,0.6
2023-04-11T11:05:34.392Z,0.6
2023-04-11T11:06:47.650Z,0.9
2023-04-11T11:07:51.305Z,0.9
2023-04-11T11:08:59.695Z,0.9
2023-04-11T11:10:08.263Z,1.5
2023-04-11T11:11:16.601Z,1.5
2023-04-11T11:12:24.939Z,1.5
2023-04-11T11:13:33.472Z,1.2
2023-04-11T11:14:41.820Z,1.2
2023-04-11T11:15:50.175Z,1.2
2023-04-11T11:16:58.792Z,0.9
2023-04-11T11:18:07.028Z,0.9
2023-04-11T11:19:15.372Z,0.9
2023-04-11T11:20:23.912Z,1.2
2023-04-11T11:21:32.227Z,1.2
2023-04-11T11:22:40.556Z,1.2
2023-04-11T11:23:49.116Z,0.5
2023-04-11T11:24:57.449Z,0.5
2023-04-11T11:26:05.799Z,0.5
2023-04-11T11:27:14.344Z,0.4
2023-04-11T11:28:22.701Z,0.4
2023-04-11T11:29:31.026Z,0.4
2023-04-11T11:30:39.565Z,0.7
2023-04-11T11:31:48.001Z,0.7
2023-04-11T11:32:56.273Z,0.7
2023-04-11T11:34:21.859Z,3.1
2023-04-11T11:35:13.118Z,3.1
2023-04-11T11:36:21.445Z,3.1
2023-04-11T11:37:29.976Z,1
2023-04-11T11:38:38.297Z,1
2023-04-11T11:39:46.643Z,1
2023-04-11T11:40:55.195Z,1.1
2023-04-11T11:42:03.556Z,1.1
2023-04-11T11:43:11.851Z,1.1
2023-04-11T11:44:20.391Z,2
2023-04-11T11:45:28.738Z,2
2023-04-11T11:46:37.126Z,2
2023-04-11T11:47:45.703Z,1.3
2023-04-11T11:48:53.916Z,1.3
2023-04-11T11:50:02.264Z,1.3
2023-04-11T11:51:10.976Z,2.1
2023-04-11T11:52:19.188Z,2.1
2023-04-11T11:53:27.527Z,2.1
2023-04-11T11:54:36.120Z,1.8
2023-04-11T11:55:44.505Z,1.8
2023-04-11T11:56:52.855Z,1.8
2023-04-11T11:58:01.394Z,1.8
2023-04-11T11:59:09.737Z,1.8
2023-04-11T12:00:18.091Z,1.8
2023-04-11T12:01:26.653Z,1.4
2023-04-11T12:02:35.070Z,1.4
2023-04-11T12:03:43.444Z,1.4
2023-04-11T12:04:51.909Z,1.4
2023-04-11T12:06:00.219Z,1.4
2023-04-11T12:07:08.577Z,1.4
2023-04-11T12:08:17.081Z,1.8
2023-04-11T12:09:25.399Z,1.8
2023-04-11T12:10:33.749Z,1.8
2023-04-11T12:11:42.280Z,1.4
2023-04-11T12:12:53.049Z,1.4
2023-04-11T12:13:59.222Z,1.4
2023-04-11T12:15:07.520Z,2.4
2023-04-11T12:16:15.893Z,2.4
2023-04-11T12:17:24.252Z,2.4
2023-04-11T12:18:32.747Z,2.1
2023-04-11T12:19:41.093Z,2.1
2023-04-11T12:20:49.414Z,2.1
2023-04-11T12:21:57.943Z,1.8
2023-04-11T12:23:06.352Z,1.8
2023-04-11T12:24:14.620Z,1.8
2023-04-11T12:25:23.231Z,1.4
2023-04-11T12:26:31.489Z,1.4
2023-04-11T12:27:39.837Z,1.4
2023-04-11T12:28:48.306Z,1
2023-04-11T12:29:56.670Z,1
2023-04-11T12:31:05.033Z,1
2023-04-11T12:32:13.521Z,1
2023-04-11T12:33:21.834Z,1
2023-04-11T12:34:30.161Z,1
2023-04-11T12:35:38.688Z,1.3
2023-04-11T12:36:47.017Z,1.3
2023-04-11T12:37:55.336Z,1.3
2023-04-11T12:39:03.896Z,1.4
2023-04-11T12:40:12.321Z,1.4
2023-04-11T12:41:31.926Z,1.4
2023-04-11T12:42:29.050Z,1
2023-04-11T12:43:37.370Z,1
2023-04-11T12:44:45.716Z,1
2023-04-11T12:45:54.267Z,1.2
2023-04-11T12:47:02.618Z,1.2
2023-04-11T12:48:10.924Z,1.2
2023-04-11T12:49:19.450Z,2
2023-04-11T12:50:27.774Z,2
2023-04-11T12:51:36.092Z,2
2023-04-11T12:52:44.705Z,2
2023-04-11T12:53:53.011Z,2
2023-04-11T12:55:01.367Z,2
2023-04-11T12:56:09.882Z,1.5
2023-04-11T12:57:18.225Z,1.5
2023-04-11T12:58:26.541Z,1.5
2023-04-11T12:59:35.152Z,1.8
2023-04-11T13:00:43.494Z,1.8
2023-04-11T13:01:51.914Z,1.8
2023-04-11T13:03:00.539Z,1.3
2023-04-11T13:04:08.810Z,1.3
2023-04-11T13:05:17.299Z,1.3
2023-04-11T13:06:25.621Z,1.6
2023-04-11T13:07:33.916Z,1.6
2023-04-11T13:08:42.238Z,1.6
2023-04-11T13:09:50.765Z,1.4
2023-04-11T13:10:59.119Z,1.4
2023-04-11T13:12:07.459Z,1.4
2023-04-11T13:13:18.225Z,1.2
2023-04-11T13:14:24.331Z,1.2
2023-04-11T13:15:32.636Z,1.2
2023-04-11T13:16:41.206Z,1.4
2023-04-11T13:17:49.474Z,1.4
2023-04-11T13:18:58.061Z,1.4
2023-04-11T13:20:06.352Z,1.5
2023-04-11T13:21:14.661Z,1.5
2023-04-11T13:22:22.973Z,1.5
2023-04-11T13:23:31.502Z,1.5
2023-04-11T13:24:39.840Z,1.5
2023-04-11T13:25:48.187Z,1.5
2023-04-11T13:26:56.818Z,1.7
2023-04-11T13:28:05.060Z,1.7
2023-04-11T13:29:13.389Z,1.7
2023-04-11T13:30:21.901Z,1.5
2023-04-11T13:31:30.245Z,1.5
2023-04-11T13:32:38.547Z,1.5
2023-04-11T13:33:47.118Z,1.6
2023-04-11T13:34:55.417Z,1.6
2023-04-11T13:36:03.735Z,1.6
2023-04-11T13:37:12.340Z,1.4
2023-04-11T13:38:20.599Z,1.4
2023-04-11T13:39:28.924Z,1.4
2023-04-11T13:40:37.443Z,1.5
2023-04-11T13:41:45.772Z,1.5
2023-04-11T13:42:54.116Z,1.5
2023-04-11T13:44:02.610Z,1.5
2023-04-11T13:45:10.930Z,1.5
2023-04-11T13:46:19.304Z,1.5
2023-04-11T13:47:27.814Z,1.8
2023-04-11T13:48:36.118Z,1.8
2023-04-11T13:49:44.454Z,1.8
2023-04-11T13:50:52.979Z,1.4
2023-04-11T13:52:01.304Z,1.4
2023-04-11T13:53:09.623Z,1.4
2023-04-11T13:54:18.152Z,1.6
2023-04-11T13:55:26.500Z,1.6
2023-04-11T13:56:35.851Z,1.6
2023-04-11T13:57:43.370Z,1.3
2023-04-11T13:58:51.742Z,1.3
2023-04-11T14:00:00.120Z,1.3
2023-04-11T14:01:08.660Z,1.5
2023-04-11T14:02:17.033Z,1.5
2023-04-11T14:03:25.373Z,1.5
2023-04-11T14:04:33.921Z,1.3
2023-04-11T14:05:42.216Z,1.3
2023-04-11T14:06:50.537Z,1.3
2023-04-11T14:07:59.116Z,1.3
2023-04-11T14:09:07.457Z,1.3
2023-04-11T14:10:15.790Z,1.3
2023-04-11T14:11:24.321Z,2
2023-04-11T14:12:32.697Z,2
2023-04-11T14:13:41.028Z,2
2023-04-11T14:14:49.668Z,1.5
2023-04-11T14:16:07.703Z,1.5
2023-04-11T14:17:06.232Z,1.5
2023-04-11T14:18:14.785Z,1.2
2023-04-11T14:19:23.148Z,1.2
2023-04-11T14:20:31.471Z,1.2
2023-04-11T14:21:40.010Z,0.9
2023-04-11T14:22:48.371Z,0.9
2023-04-11T14:23:56.925Z,0.9
2023-04-11T14:25:05.236Z,1
2023-04-11T14:26:13.558Z,1
2023-04-11T14:27:21.919Z,1
2023-04-11T14:28:30.478Z,0.9
2023-04-11T14:29:38.833Z,0.9
2023-04-11T14:30:47.245Z,0.9
2023-04-11T14:31:55.739Z,1
2023-04-11T14:33:04.083Z,1
2023-04-11T14:34:12.424Z,1
2023-04-11T14:35:20.993Z,1.1
2023-04-11T14:36:29.320Z,1.1
2023-04-11T14:37:37.675Z,1.1
2023-04-11T14:38:46.201Z,1.2
2023-04-11T14:39:54.546Z,1.2
2023-04-11T14:41:02.867Z,1.2
2023-04-11T14:42:11.435Z,1
2023-04-11T14:43:19.749Z,1
2023-04-11T14:44:29.369Z,1
2023-04-11T14:45:36.625Z,1.5
2023-04-11T14:46:44.977Z,1.5
2023-04-11T14:47:53.317Z,1.5
2023-04-11T14:49:01.847Z,1.3
2023-04-11T14:50:10.179Z,1.3
2023-04-11T14:51:18.500Z,1.3
2023-04-11T14:52:27.068Z,1.1
2023-04-11T14:53:35.401Z,1.1
2023-04-11T14:54:43.746Z,1.1
2023-04-11T14:55:52.264Z,1.5
2023-04-11T14:57:00.615Z,1.5
2023-04-11T14:58:08.990Z,1.5
2023-04-11T14:59:17.520Z,1.6
2023-04-11T15:00:25.866Z,1.6
2023-04-11T15:01:34.221Z,1.6
2023-04-11T15:02:42.832Z,1.8
2023-04-11T15:03:51.225Z,1.8
2023-04-11T15:04:59.472Z,1.8
2023-04-11T15:06:07.953Z,1.7
2023-04-11T15:39:37.256Z,0
2023-04-11T15:40:45.554Z,0
2023-04-11T15:41:53.900Z,0
2023-04-11T15:43:02.445Z,1.7
2023-04-11T15:44:10.783Z,1.7
2023-04-11T15:45:19.126Z,1.7
2023-04-11T15:46:27.728Z,1.4
2023-04-11T15:47:36.036Z,1.4
2023-04-11T15:48:44.359Z,1.4
2023-04-11T15:49:52.896Z,1.7
2023-04-11T15:51:01.231Z,1.7
2023-04-11T15:52:09.596Z,1.7
2023-04-11T15:53:18.139Z,1.8
2023-04-11T15:54:26.475Z,1.8
2023-04-11T15:55:34.808Z,1.8
2023-04-11T15:56:43.345Z,2.3
2023-04-11T15:57:51.674Z,2.3
2023-04-11T15:58:59.995Z,2.3
2023-04-11T16:00:08.553Z,2.5
2023-04-11T16:01:16.895Z,2.5
2023-04-11T16:02:25.413Z,2.5
2023-04-11T16:03:34.063Z,2.5
2023-04-11T16:04:42.955Z,2.5
2023-04-11T16:05:50.461Z,2.5
2023-04-11T16:06:59.012Z,1.6
2023-04-11T16:08:07.348Z,1.6
2023-04-11T16:09:15.683Z,1.6
2023-04-11T16:10:24.254Z,2.4
2023-04-11T16:11:32.679Z,2.4
2023-04-11T16:12:40.929Z,2.4
2023-04-11T16:13:49.482Z,5
2023-04-11T16:14:57.802Z,5
2023-04-11T16:16:06.172Z,5
2023-04-11T16:17:14.980Z,4.2
2023-04-11T16:18:23.136Z,4.2
2023-04-11T16:19:31.471Z,4.2
2023-04-11T16:20:40.029Z,8.6